SAVC/CRD METAR and TAF weather

Enter ICAO airport designator
Station Type Date Time Source
SAVC METAR 2022/06/30 00:00 UTC NOAA

SAVC 300000Z 27009KT CAVOK 03/M03 Q1009 RMK PP000


Station Type Date Time Source
SAVC Decoded METAR 2022/06/30 00:00 UTC NOAA

Comodoro Rivadavia Aerodrome, Argentina (SAVC) 45-47S 067-30W 46M
Jun 29, 2022 - 08:00 PM EDT / 2022.06.30 0000 UTC
Wind: from the W (270 degrees) at 10 MPH (9 KT):0
Visibility: greater than 7 mile(s):0
Temperature: 37 F (3 C)
Dew Point: 26 F (-3 C)
Relative Humidity: 64%
Pressure (altimeter): 29.80 in. Hg (1009 hPa)
ob: SAVC 300000Z 27009KT CAVOK 03/M03 Q1009 RMK PP000
cycle: 0

Station Type Date Time Source
SAVC TAF 2022/06/29 18:06 UTC NOAA

TAF TAF SAVC 291700Z 2918/3018 25010G20KT CAVOK TX09/3018Z TN03/3003Z
BECMG 3000/3002 27010KT

Example: see airport list